Date,TemperatureHighF,TemperatureAvgF,TemperatureLowF,DewpointHighF,DewpointAvgF,DewpointLowF,HumidityHigh,HumidityAvg,HumidityLow,PressureMaxIn,PressureMinIn,WindSpeedMaxMPH,WindSpeedAvgMPH,GustSpeedMaxMPH,PrecipitationSumIn
2013-4-1,38,32,26,28,25,21,83,74,60,29.91,29.80,16,6,16,0.00
2013-4-2,41,34,27,29,25,22,83,72,56,29.98,29.89,20,7,20,0.00
2013-4-3,41,34,30,29,26,24,81,73,58,30.00,29.96,13,6,13,0.00
2013-4-4,41,35,31,31,28,26,83,77,66,29.97,29.86,9,5,9,0.00
2013-4-5,39,35,33,32,30,28,83,80,74,29.87,29.75,12,5,12,0.00
2013-4-6,42,37,34,34,31,29,83,80,71,30.15,29.87,13,7,13,0.00
2013-4-7,44,37,27,33,29,22,83,73,51,30.17,30.06,13,5,13,0.00
2013-4-8,50,37,21,33,24,16,84,63,39,30.06,29.74,18,6,18,0.00
2013-4-9,52,43,36,39,34,27,82,70,59,29.75,29.66,14,5,14,0.08
2013-4-10,56,46,39,48,40,34,82,79,65,29.84,29.66,18,7,18,0.06
2013-4-11,62,48,38,49,42,32,83,79,62,29.84,29.62,20,7,20,0.05
2013-4-12,61,51,41,51,45,36,84,80,65,29.80,29.54,33,8,33,0.30
2013-4-13,60,50,40,47,42,35,83,73,53,30.26,29.80,26,11,26,0.02
2013-4-14,67,51,34,48,41,30,88,70,43,30.37,30.26,8,3,8,0.00
2013-4-15,71,56,39,48,41,34,83,59,32,30.32,30.14,18,6,18,0.04
2013-4-16,68,57,46,50,44,37,81,63,48,30.17,30.09,15,6,15,0.04
2013-4-17,74,60,49,57,50,44,83,70,45,30.22,30.13,10,2,10,0.01
2013-4-18,53,52,51,46,46,45,81,80,79,30.13,30.13,1,0,1,0.00
2013-4-19,61,56,48,54,46,40,82,69,49,30.24,30.02,18,5,18,0.10
2013-4-20,53,48,44,45,42,39,83,79,70,30.32,30.24,12,6,12,0.13
2013-4-21,67,53,38,51,43,33,83,71,54,30.27,29.95,18,7,18,0.00
2013-4-22,72,56,43,56,47,38,83,74,50,30.02,29.91,20,4,20,0.35
2013-4-23,71,58,47,54,47,41,84,69,48,30.21,30.02,24,6,24,0.01
2013-4-24,74,58,43,53,45,38,83,64,40,30.33,30.21,12,4,12,0.00
2013-4-25,78,63,46,57,50,42,83,65,39,30.28,30.09,13,3,13,0.00
2013-4-26,82,65,48,58,49,43,83,62,30,30.09,29.64,15,5,15,0.00
2013-4-27,53,49,48,48,44,43,84,83,79,29.72,29.62,13,9,13,0.10
2013-4-28,55,47,43,46,42,38,85,81,70,30.04,29.69,15,8,15,0.33
2013-4-29,57,52,47,51,46,42,84,82,78,30.15,29.98,12,4,12,0.01
2013-4-30,58,50,47,51,45,42,84,83,78,30.16,30.14,7,2,7,0.00